createdAt,value
2022-09-09T00:01:49.142Z,71.59
2022-09-09T00:04:22.105Z,71.22
2022-09-09T00:07:07.153Z,71.37
2022-09-09T00:09:56.703Z,71.20
2022-09-09T00:12:45.368Z,71.21
2022-09-09T00:15:23.365Z,70.81
2022-09-09T00:18:25.474Z,71.12
2022-09-09T00:21:08.944Z,71.12
2022-09-09T00:23:40.551Z,71.01
2022-09-09T00:26:16.484Z,71.13
2022-09-09T00:28:59.306Z,71.22
2022-09-09T00:31:31.519Z,70.95
2022-09-09T00:34:14.196Z,71.00
2022-09-09T00:36:42.571Z,71.24
2022-09-09T00:39:24.693Z,71.05
2022-09-09T00:42:21.646Z,71.00
2022-09-09T00:45:18.693Z,71.10
2022-09-09T00:47:52.377Z,71.07
2022-09-09T00:50:34.101Z,71.06
2022-09-09T00:53:17.265Z,71.02
2022-09-09T00:55:53.306Z,71.40
2022-09-09T00:58:20.176Z,71.00
2022-09-09T01:01:19.779Z,70.99
2022-09-09T01:03:55.113Z,71.14
2022-09-09T01:06:39.840Z,70.97
2022-09-09T01:09:38.575Z,70.92
2022-09-09T01:12:26.069Z,70.71
2022-09-09T01:15:02.189Z,71.03
2022-09-09T01:17:36.885Z,70.92
2022-09-09T01:20:31.470Z,71.04
2022-09-09T01:22:58.365Z,71.03
2022-09-09T01:25:43.542Z,70.81
2022-09-09T01:28:16.774Z,71.06
2022-09-09T01:30:43.884Z,70.76
2022-09-09T01:33:19.560Z,71.11
2022-09-09T01:35:58.175Z,71.10
2022-09-09T01:38:26.344Z,70.86
2022-09-09T01:40:54.384Z,71.00
2022-09-09T01:43:22.780Z,71.07
2022-09-09T01:45:52.248Z,71.05
2022-09-09T01:48:20.431Z,71.02
2022-09-09T01:50:47.413Z,71.04
2022-09-09T01:53:18.214Z,71.07
2022-09-09T01:56:10.313Z,70.84
2022-09-09T01:58:55.314Z,71.13
2022-09-09T02:01:40.636Z,71.06
2022-09-09T02:04:22.134Z,71.14
2022-09-09T02:06:52.243Z,71.04
2022-09-09T02:09:22.547Z,71.07
2022-09-09T02:11:57.528Z,71.04
2022-09-09T02:14:31.768Z,71.11
2022-09-09T02:17:05.711Z,71.14
2022-09-09T02:19:40.546Z,71.37
2022-09-09T02:22:07.580Z,71.21
2022-09-09T02:24:37.613Z,70.75
2022-09-09T02:27:08.738Z,71.54
2022-09-09T02:29:46.168Z,71.13
2022-09-09T02:32:17.270Z,71.17
2022-09-09T02:34:49.198Z,71.30
2022-09-09T02:37:21.393Z,71.21
2022-09-09T02:39:49.019Z,71.16
2022-09-09T02:42:16.265Z,71.27
2022-09-09T02:44:43.337Z,71.46
2022-09-09T02:47:29.506Z,71.38
2022-09-09T02:50:14.812Z,70.94
2022-09-09T02:52:50.551Z,71.04
2022-09-09T02:55:41.179Z,71.09
2022-09-09T02:58:13.280Z,71.08
2022-09-09T03:00:41.727Z,71.06
2022-09-09T03:03:10.603Z,71.05
2022-09-09T03:05:37.937Z,71.09
2022-09-09T03:08:06.652Z,71.24
2022-09-09T03:10:34.605Z,71.02
2022-09-09T03:13:01.679Z,71.22
2022-09-09T03:15:31.438Z,71.15
2022-09-09T03:17:59.419Z,70.97
2022-09-09T03:20:27.850Z,70.86
2022-09-09T03:22:55.590Z,71.15
2022-09-09T03:25:26.933Z,71.09
2022-09-09T03:27:56.293Z,71.08
2022-09-09T03:30:28.317Z,71.05
2022-09-09T03:32:56.550Z,71.01
2022-09-09T03:35:23.564Z,70.99
2022-09-09T03:37:50.610Z,71.23
2022-09-09T03:40:17.713Z,71.21
2022-09-09T03:42:44.594Z,71.15
2022-09-09T03:45:12.041Z,70.91
2022-09-09T03:47:39.113Z,71.06
2022-09-09T03:50:10.088Z,71.11
2022-09-09T03:52:38.840Z,71.03
2022-09-09T03:55:07.038Z,71.11
2022-09-09T03:57:37.187Z,71.01
2022-09-09T04:00:06.359Z,71.05
2022-09-09T04:02:33.394Z,71.30
2022-09-09T04:05:00.966Z,71.07
2022-09-09T04:07:29.493Z,71.25
2022-09-09T04:09:56.617Z,71.16
2022-09-09T04:12:23.746Z,71.08
2022-09-09T04:14:50.750Z,71.08
2022-09-09T04:17:18.703Z,71.01
2022-09-09T04:19:45.656Z,70.99
2022-09-09T04:22:12.674Z,71.13
2022-09-09T04:24:39.699Z,71.19
2022-09-09T04:27:06.742Z,71.02
2022-09-09T04:29:33.658Z,71.13
2022-09-09T04:32:00.583Z,71.23
2022-09-09T04:34:27.553Z,71.00
2022-09-09T04:36:54.532Z,71.09
2022-09-09T04:39:21.466Z,71.40
2022-09-09T04:41:48.553Z,71.37
2022-09-09T04:44:15.704Z,71.34
2022-09-09T04:46:42.788Z,71.47
2022-09-09T04:49:14.500Z,71.55
2022-09-09T04:51:42.047Z,71.65
2022-09-09T04:54:08.916Z,71.73
2022-09-09T04:56:35.875Z,71.88
2022-09-09T04:59:04.250Z,71.81
2022-09-09T05:01:31.121Z,71.56
2022-09-09T05:03:58.017Z,72.05
2022-09-09T05:06:25.432Z,72.18
2022-09-09T05:08:52.556Z,72.29
2022-09-09T05:11:25.455Z,72.42
2022-09-09T05:13:52.977Z,72.42
2022-09-09T05:16:20.680Z,72.50
2022-09-09T05:18:48.409Z,72.36
2022-09-09T05:21:16.892Z,72.55
2022-09-09T05:23:44.054Z,72.25
2022-09-09T05:26:17.750Z,72.23
2022-09-09T05:28:45.349Z,72.37
2022-09-09T05:31:14.376Z,71.98
2022-09-09T05:33:44.258Z,72.37
2022-09-09T05:36:16.261Z,72.47
2022-09-09T05:38:43.640Z,72.32
2022-09-09T05:41:17.013Z,72.53
2022-09-09T05:43:51.078Z,72.04
2022-09-09T05:46:21.462Z,72.25
2022-09-09T05:48:52.178Z,72.25
2022-09-09T05:51:25.460Z,72.10
2022-09-09T05:54:01.632Z,72.00
2022-09-09T05:56:30.178Z,72.09
2022-09-09T05:58:57.726Z,71.89
2022-09-09T06:01:33.084Z,71.62
2022-09-09T06:04:00.262Z,71.82
2022-09-09T06:06:31.687Z,71.75
2022-09-09T06:08:59.579Z,71.64
2022-09-09T06:11:29.426Z,71.55
2022-09-09T06:13:56.456Z,71.39
2022-09-09T06:16:26.059Z,71.23
2022-09-09T06:18:54.527Z,71.30
2022-09-09T06:21:27.303Z,71.27
2022-09-09T06:23:58.994Z,71.13
2022-09-09T06:26:31.814Z,71.04
2022-09-09T06:28:59.419Z,70.77
2022-09-09T06:31:31.864Z,71.12
2022-09-09T06:34:00.205Z,71.26
2022-09-09T06:36:32.469Z,71.35
2022-09-09T06:39:00.237Z,71.31
2022-09-09T06:41:29.562Z,71.14
2022-09-09T06:43:59.179Z,70.92
2022-09-09T06:46:32.513Z,71.01
2022-09-09T06:49:01.095Z,70.80
2022-09-09T06:51:37.501Z,70.80
2022-09-09T06:54:05.110Z,70.95
2022-09-09T06:56:36.192Z,70.77
2022-09-09T06:59:05.202Z,70.91
2022-09-09T07:01:34.598Z,71.03
2022-09-09T07:04:03.185Z,70.82
2022-09-09T07:06:32.453Z,71.03
2022-09-09T07:09:07.778Z,71.19
2022-09-09T07:11:40.526Z,71.49
2022-09-09T07:14:08.293Z,71.06
2022-09-09T07:16:38.276Z,71.55
2022-09-09T07:19:05.890Z,71.12
2022-09-09T07:21:33.856Z,71.28
2022-09-09T07:24:01.419Z,71.29
2022-09-09T07:26:30.733Z,71.47
2022-09-09T07:28:58.514Z,71.32
2022-09-09T07:31:27.434Z,71.28
2022-09-09T07:33:54.829Z,71.33
2022-09-09T07:36:33.508Z,71.48
2022-09-09T07:39:04.384Z,71.28
2022-09-09T07:41:41.785Z,71.33
2022-09-09T07:44:12.914Z,71.49
2022-09-09T07:46:41.058Z,71.54
2022-09-09T07:49:09.882Z,71.47
2022-09-09T07:51:42.352Z,71.54
2022-09-09T07:54:14.669Z,71.31
2022-09-09T07:56:42.894Z,71.14
2022-09-09T07:59:10.835Z,71.41
2022-09-09T08:01:41.125Z,71.38
2022-09-09T08:04:11.005Z,71.35
2022-09-09T08:06:40.889Z,71.38
2022-09-09T08:09:09.289Z,71.42
2022-09-09T08:11:39.157Z,71.44
2022-09-09T08:14:12.388Z,71.81
2022-09-09T08:16:42.677Z,71.51
2022-09-09T08:19:10.039Z,71.49
2022-09-09T08:21:40.521Z,71.45
2022-09-09T08:24:09.217Z,71.46
2022-09-09T08:26:41.546Z,71.35
2022-09-09T08:29:11.641Z,71.34
2022-09-09T08:31:41.410Z,71.54
2022-09-09T08:34:10.478Z,71.48
2022-09-09T08:36:40.399Z,71.61
2022-09-09T08:39:09.993Z,71.58
2022-09-09T08:42:08.000Z,71.33
2022-09-09T08:44:48.217Z,71.27
2022-09-09T08:47:37.909Z,71.54
2022-09-09T08:50:25.918Z,71.65
2022-09-09T08:53:03.717Z,71.33
2022-09-09T08:55:40.801Z,71.61
2022-09-09T08:58:15.526Z,71.49
2022-09-09T09:00:48.614Z,71.62
2022-09-09T09:03:38.777Z,71.75
2022-09-09T09:06:11.659Z,71.52
2022-09-09T09:08:45.298Z,71.67
2022-09-09T09:11:13.009Z,71.44
2022-09-09T09:13:44.023Z,71.67
2022-09-09T09:16:36.686Z,71.61
2022-09-09T09:19:04.874Z,71.64
2022-09-09T09:21:45.123Z,71.59
2022-09-09T09:24:33.773Z,71.71
2022-09-09T09:27:13.938Z,71.39
2022-09-09T09:30:03.746Z,71.45
2022-09-09T09:32:35.336Z,71.72
2022-09-09T09:35:09.315Z,71.50
2022-09-09T09:37:37.134Z,71.45
2022-09-09T09:40:12.974Z,71.42
2022-09-09T09:43:00.176Z,71.27
2022-09-09T09:45:30.616Z,71.66
2022-09-09T09:48:07.759Z,71.02
2022-09-09T09:50:35.901Z,70.86
2022-09-09T09:53:08.155Z,70.69
2022-09-09T09:55:38.351Z,70.81
2022-09-09T09:58:07.415Z,70.81
2022-09-09T10:00:38.418Z,70.58
2022-09-09T10:03:15.063Z,70.75
2022-09-09T10:05:47.408Z,70.78
2022-09-09T10:08:17.998Z,70.91
2022-09-09T10:10:54.071Z,70.85
2022-09-09T10:13:42.096Z,70.92
2022-09-09T10:16:22.232Z,70.79
2022-09-09T10:19:14.463Z,70.83
2022-09-09T10:22:12.603Z,70.82
2022-09-09T10:25:17.655Z,70.50
2022-09-09T10:28:22.184Z,70.76
2022-09-09T10:30:52.052Z,71.15
2022-09-09T10:33:42.051Z,71.00
2022-09-09T10:36:21.812Z,71.44
2022-09-09T10:39:03.702Z,71.22
2022-09-09T10:41:56.111Z,71.08
2022-09-09T10:44:31.795Z,71.19
2022-09-09T10:47:16.923Z,70.90
2022-09-09T10:49:50.702Z,71.07
2022-09-09T10:52:28.807Z,70.15
2022-09-09T10:54:55.691Z,69.50
2022-09-09T10:57:51.207Z,69.58
2022-09-09T11:00:32.604Z,69.65
2022-09-09T11:03:04.008Z,69.98
2022-09-09T11:05:47.280Z,70.05
2022-09-09T11:08:21.156Z,70.27
2022-09-09T11:11:12.358Z,70.54
2022-09-09T11:13:57.173Z,70.55
2022-09-09T11:16:43.144Z,71.03
2022-09-09T11:19:36.248Z,70.90
2022-09-09T11:22:34.982Z,70.92
2022-09-09T11:25:28.183Z,71.01
2022-09-09T11:28:13.653Z,71.11
2022-09-09T11:31:17.863Z,71.15
2022-09-09T11:34:09.688Z,71.14
2022-09-09T11:36:57.483Z,71.28
2022-09-09T11:39:55.400Z,70.86
2022-09-09T11:42:25.526Z,71.21
2022-09-09T11:44:54.522Z,71.19
2022-09-09T11:47:33.104Z,71.01
2022-09-09T11:50:11.501Z,70.92
2022-09-09T11:52:39.774Z,71.03
2022-09-09T11:55:34.338Z,70.89
2022-09-09T11:58:05.298Z,70.99
2022-09-09T12:00:46.836Z,71.20
2022-09-09T12:03:44.826Z,70.86
2022-09-09T12:06:14.800Z,70.86
2022-09-09T12:08:46.825Z,70.99
2022-09-09T12:11:26.401Z,70.87
2022-09-09T12:13:59.424Z,70.80
2022-09-09T12:16:35.747Z,70.79
2022-09-09T12:19:22.114Z,70.85
2022-09-09T12:22:32.168Z,70.61
2022-09-09T12:25:11.400Z,70.77
2022-09-09T12:27:52.531Z,70.46
2022-09-09T12:30:19.471Z,70.65
2022-09-09T12:32:46.489Z,70.50
2022-09-09T12:35:21.807Z,70.39
2022-09-09T12:37:51.643Z,70.64
2022-09-09T12:40:24.921Z,70.26
2022-09-09T12:42:52.638Z,70.25
2022-09-09T12:45:26.396Z,70.07
2022-09-09T12:47:59.442Z,70.14
2022-09-09T12:50:32.600Z,70.26
2022-09-09T12:53:03.619Z,70.36
2022-09-09T12:55:32.296Z,70.50
2022-09-09T12:58:00.793Z,70.45
2022-09-09T13:00:28.362Z,70.57
2022-09-09T13:03:03.753Z,70.47
2022-09-09T13:05:40.133Z,70.35
2022-09-09T13:08:12.703Z,70.29
2022-09-09T13:11:00.127Z,70.00
2022-09-09T13:13:36.482Z,70.02
2022-09-09T13:16:06.873Z,69.76
2022-09-09T13:18:39.742Z,69.36
2022-09-09T13:21:06.728Z,69.26
2022-09-09T13:23:36.565Z,69.23
2022-09-09T13:26:08.956Z,69.20
2022-09-09T13:28:36.380Z,69.40
2022-09-09T13:31:20.927Z,69.74
2022-09-09T13:33:47.933Z,70.04
2022-09-09T13:36:18.528Z,69.87
2022-09-09T13:39:00.905Z,69.65
2022-09-09T13:41:34.933Z,69.64
2022-09-09T13:44:03.884Z,69.97
2022-09-09T13:46:40.385Z,69.55
2022-09-09T13:49:10.258Z,68.78
2022-09-09T13:51:38.837Z,68.86
2022-09-09T13:54:11.453Z,68.88
2022-09-09T13:56:40.232Z,69.23
2022-09-09T13:59:13.023Z,69.37
2022-09-09T14:01:40.045Z,68.61
2022-09-09T14:04:07.873Z,68.83
2022-09-09T14:06:39.534Z,69.52
2022-09-09T14:09:07.675Z,69.31
2022-09-09T14:11:34.904Z,68.81
2022-09-09T14:14:02.246Z,68.88
2022-09-09T14:16:29.389Z,69.18
2022-09-09T14:19:00.504Z,69.16
2022-09-09T14:21:27.666Z,69.06
2022-09-09T14:23:54.991Z,68.49
2022-09-09T14:26:25.591Z,68.91
2022-09-09T14:28:55.577Z,68.28
2022-09-09T14:31:24.791Z,68.31
2022-09-09T14:33:52.369Z,68.07
2022-09-09T14:36:19.922Z,68.54
2022-09-09T14:38:47.348Z,67.89
2022-09-09T14:41:20.054Z,67.82
2022-09-09T14:43:47.727Z,67.88
2022-09-09T14:46:17.657Z,68.07
2022-09-09T14:48:46.512Z,67.13
2022-09-09T14:51:17.071Z,68.09
2022-09-09T14:53:45.525Z,67.68
2022-09-09T14:56:15.774Z,67.89
2022-09-09T14:58:43.700Z,67.89
2022-09-09T15:01:13.449Z,68.18
2022-09-09T15:03:42.069Z,68.12
2022-09-09T15:06:10.884Z,68.09
2022-09-09T15:08:42.443Z,68.28
2022-09-09T15:11:11.624Z,68.46
2022-09-09T15:13:40.603Z,67.76
2022-09-09T15:16:16.987Z,67.46
2022-09-09T15:18:46.253Z,67.84
2022-09-09T15:21:13.913Z,67.99
2022-09-09T15:23:41.209Z,68.18
2022-09-09T15:26:08.906Z,68.08
2022-09-09T15:28:38.710Z,67.59
2022-09-09T15:31:12.665Z,67.87
2022-09-09T15:33:39.688Z,67.92
2022-09-09T15:36:26.697Z,67.53
2022-09-09T15:38:54.275Z,67.28
2022-09-09T15:41:23.107Z,67.62
2022-09-09T15:43:57.909Z,68.24
2022-09-09T15:46:42.370Z,67.54
2022-09-09T15:49:12.144Z,67.84
2022-09-09T15:51:43.132Z,67.58
2022-09-09T15:54:18.087Z,67.80
2022-09-09T15:56:47.461Z,68.20
2022-09-09T15:59:16.001Z,68.22
2022-09-09T16:01:44.446Z,68.41
2022-09-09T16:04:11.946Z,68.13
2022-09-09T16:06:38.916Z,68.03
2022-09-09T16:09:08.239Z,68.12
2022-09-09T16:11:38.131Z,66.84
2022-09-09T16:14:05.306Z,68.02
2022-09-09T16:16:32.650Z,67.74
2022-09-09T16:19:02.978Z,67.29
2022-09-09T16:21:36.394Z,67.90
2022-09-09T16:24:05.271Z,67.90
2022-09-09T16:26:35.853Z,67.90
2022-09-09T16:29:04.065Z,68.17
2022-09-09T16:31:33.525Z,68.49
2022-09-09T16:34:01.052Z,68.46
2022-09-09T16:36:32.853Z,68.93
2022-09-09T16:39:02.031Z,68.08
2022-09-09T16:41:30.068Z,67.99
2022-09-09T16:43:59.534Z,68.40
2022-09-09T16:46:28.922Z,68.08
2022-09-09T16:48:59.720Z,68.31
2022-09-09T16:51:28.541Z,68.47
2022-09-09T16:53:56.531Z,68.21
2022-09-09T16:56:28.530Z,68.47
2022-09-09T16:59:00.703Z,68.63
2022-09-09T17:01:31.081Z,68.54
2022-09-09T17:04:06.920Z,68.47
2022-09-09T17:06:38.727Z,68.17
2022-09-09T17:09:08.819Z,68.33
2022-09-09T17:11:37.016Z,68.06
2022-09-09T17:14:04.616Z,68.30
2022-09-09T17:16:33.348Z,68.29
2022-09-09T17:19:00.631Z,68.48
2022-09-09T17:21:29.592Z,68.32
2022-09-09T17:23:58.010Z,68.50
2022-09-09T17:26:28.722Z,68.29
2022-09-09T17:28:59.471Z,68.47
2022-09-09T17:31:28.744Z,68.42
2022-09-09T17:33:56.788Z,68.49
2022-09-09T17:36:32.996Z,68.59
2022-09-09T17:39:05.438Z,68.59
2022-09-09T17:41:38.067Z,68.90
2022-09-09T17:44:11.082Z,67.96
2022-09-09T17:46:43.100Z,66.81
2022-09-09T17:49:13.626Z,67.15
2022-09-09T17:51:42.801Z,67.42
2022-09-09T17:54:13.708Z,67.50
2022-09-09T17:56:42.528Z,67.84
2022-09-09T17:59:13.385Z,67.75
2022-09-09T18:01:45.192Z,67.89
2022-09-09T18:04:14.491Z,68.21
2022-09-09T18:06:48.444Z,68.18
2022-09-09T18:09:18.651Z,68.20
2022-09-09T18:11:51.612Z,68.39
2022-09-09T18:14:21.880Z,68.21
2022-09-09T18:16:49.664Z,68.31
2022-09-09T18:19:20.596Z,68.78
2022-09-09T18:21:48.182Z,68.38
2022-09-09T18:24:17.925Z,68.73
2022-09-09T18:26:46.033Z,68.68
2022-09-09T18:29:16.943Z,68.82
2022-09-09T18:31:44.861Z,68.75
2022-09-09T18:34:13.760Z,69.00
2022-09-09T18:36:47.131Z,68.94
2022-09-09T18:39:17.592Z,69.14
2022-09-09T18:41:50.671Z,68.76
2022-09-09T18:44:21.953Z,69.18
2022-09-09T18:46:54.348Z,68.95
2022-09-09T18:49:24.832Z,68.95
2022-09-09T18:51:52.465Z,69.42
2022-09-09T18:54:26.164Z,69.74
2022-09-09T18:56:56.635Z,69.96
2022-09-09T18:59:24.656Z,69.92
2022-09-09T19:01:53.711Z,69.66
2022-09-09T19:04:22.966Z,69.65
2022-09-09T19:06:52.759Z,68.37
2022-09-09T19:09:20.007Z,65.76
2022-09-09T19:11:47.784Z,65.11
2022-09-09T19:14:17.099Z,66.92
2022-09-09T19:16:46.109Z,67.33
2022-09-09T19:19:17.246Z,67.88
2022-09-09T19:21:46.023Z,68.29
2022-09-09T19:24:20.304Z,68.16
2022-09-09T19:26:50.342Z,65.94
2022-09-09T19:29:23.649Z,65.62
2022-09-09T19:34:40.759Z,67.81
2022-09-09T19:37:08.218Z,68.30
2022-09-09T19:39:35.665Z,68.69
2022-09-09T19:42:02.757Z,69.25
2022-09-09T19:44:30.012Z,69.11
2022-09-09T19:46:57.863Z,69.28
2022-09-09T19:49:26.226Z,69.34
2022-09-09T19:51:58.054Z,69.58
2022-09-09T19:54:25.779Z,69.42
2022-09-09T19:56:57.372Z,69.76
2022-09-09T19:59:24.484Z,69.79
2022-09-09T20:01:52.201Z,69.75
2022-09-09T20:04:21.301Z,69.54
2022-09-09T20:06:49.786Z,69.95
2022-09-09T20:09:20.032Z,69.65
2022-09-09T20:11:48.954Z,69.68
2022-09-09T20:14:18.054Z,69.90
2022-09-09T20:16:47.311Z,69.77
2022-09-09T20:19:16.919Z,69.44
2022-09-09T20:21:48.977Z,69.38
2022-09-09T20:24:19.879Z,69.40
2022-09-09T20:26:49.448Z,69.40
2022-09-09T20:29:19.413Z,69.23
2022-09-09T20:31:49.437Z,69.38
2022-09-09T20:34:19.441Z,69.17
2022-09-09T20:36:47.237Z,69.08
2022-09-09T20:39:17.549Z,69.01
2022-09-09T20:41:46.743Z,68.94
2022-09-09T20:44:25.452Z,68.90
2022-09-09T20:46:57.786Z,68.86
2022-09-09T20:49:26.166Z,68.91
2022-09-09T20:51:56.132Z,68.89
2022-09-09T20:54:26.471Z,68.55
2022-09-09T20:56:55.697Z,68.60
2022-09-09T20:59:25.158Z,68.28
2022-09-09T21:01:53.362Z,68.56
2022-09-09T21:04:22.454Z,68.39
2022-09-09T21:06:53.279Z,68.55
2022-09-09T21:09:23.746Z,68.55
2022-09-09T21:11:56.597Z,68.41
2022-09-09T21:14:24.897Z,68.46
2022-09-09T21:16:54.995Z,68.38
2022-09-09T21:19:22.427Z,68.06
2022-09-09T21:21:49.730Z,68.08
2022-09-09T21:24:17.764Z,68.00
2022-09-09T21:26:45.118Z,68.17
2022-09-09T21:29:14.266Z,68.28
2022-09-09T21:31:43.656Z,68.28
2022-09-09T21:34:10.981Z,67.92
2022-09-09T21:36:38.153Z,68.41
2022-09-09T21:39:05.380Z,68.30
2022-09-09T21:41:32.699Z,68.59
2022-09-09T21:43:59.921Z,68.71
2022-09-09T21:46:28.486Z,68.55
2022-09-09T21:48:58.716Z,68.76
2022-09-09T21:51:28.853Z,68.62
2022-09-09T21:53:57.034Z,68.51
2022-09-09T21:56:24.720Z,68.62
2022-09-09T21:58:57.196Z,68.66
2022-09-09T22:01:25.227Z,68.87
2022-09-09T22:03:52.435Z,68.86
2022-09-09T22:06:19.838Z,68.67
2022-09-09T22:08:48.308Z,68.81
2022-09-09T22:11:19.281Z,68.81
2022-09-09T22:13:49.420Z,68.62
2022-09-09T22:16:19.363Z,68.71
2022-09-09T22:18:51.989Z,68.78
2022-09-09T22:21:20.344Z,68.76
2022-09-09T22:23:59.286Z,68.95
2022-09-09T22:26:28.189Z,68.84
2022-09-09T22:28:57.520Z,68.95
2022-09-09T22:31:27.373Z,69.01
2022-09-09T22:33:54.769Z,68.76
2022-09-09T22:36:21.807Z,69.02
2022-09-09T22:38:50.196Z,68.99
2022-09-09T22:41:19.041Z,69.23
2022-09-09T22:43:46.870Z,68.79
2022-09-09T22:46:14.158Z,69.13
2022-09-09T22:48:41.292Z,69.26
2022-09-09T22:51:14.374Z,69.20
2022-09-09T22:53:42.621Z,69.26
2022-09-09T22:56:14.487Z,69.10
2022-09-09T22:58:41.778Z,69.39
2022-09-09T23:01:15.721Z,69.36
2022-09-09T23:03:46.440Z,69.19
2022-09-09T23:06:22.653Z,69.29
2022-09-09T23:08:52.368Z,69.41
2022-09-09T23:11:19.427Z,69.32
2022-09-09T23:13:52.824Z,69.06
2022-09-09T23:16:23.225Z,69.20
2022-09-09T23:18:52.454Z,69.04
2022-09-09T23:21:19.926Z,69.36
2022-09-09T23:23:46.878Z,69.30
2022-09-09T23:26:19.350Z,69.29
2022-09-09T23:28:48.117Z,69.26
2022-09-09T23:31:20.151Z,69.37
2022-09-09T23:33:48.316Z,69.21
2022-09-09T23:36:19.429Z,69.36
2022-09-09T23:38:46.659Z,69.28
2022-09-09T23:41:21.372Z,68.99
2022-09-09T23:43:52.905Z,69.21
2022-09-09T23:46:22.846Z,69.24
2022-09-09T23:48:53.004Z,69.14
2022-09-09T23:51:24.202Z,69.27
2022-09-09T23:53:53.547Z,69.23
2022-09-09T23:56:22.022Z,69.25
2022-09-09T23:58:50.216Z,69.50
